Time;durP1;ratioP1;P1;durP2;ratioP2;P2;SDS_P1;SDS_P2;PMS_P1;PMS_P2;Temp;Humidity;BMP_temperature;BMP_pressure;BME280_temperature;BME280_humidity;BME280_pressure;Samples;Min_cycle;Max_cycle;Signal;HPM_P1;HPM_P2
2023/06/26 00:00:05;;;;;;;6.72;6.13;;;;;;;22.52;100.00;101200.44;4908066;29;20054;-79
2023/06/26 00:02:34;;;;;;;8.13;6.65;;;;;;;22.48;100.00;101188.94;4939861;28;20055;-79
2023/06/26 00:05:02;;;;;;;9.50;6.75;;;;;;;22.46;100.00;101188.16;4961382;28;20507;-79
2023/06/26 00:07:30;;;;;;;7.07;6.38;;;;;;;22.43;100.00;101187.38;4981770;28;20054;-81
2023/06/26 00:10:00;;;;;;;7.53;6.80;;;;;;;22.40;100.00;101191.09;4939819;28;20077;-79
2023/06/26 00:12:28;;;;;;;6.75;6.15;;;;;;;22.36;100.00;101184.97;4934820;29;20050;-80
2023/06/26 00:14:55;;;;;;;7.18;6.47;;;;;;;22.34;100.00;101172.53;4922110;28;20059;-78
2023/06/26 00:17:23;;;;;;;8.48;7.32;;;;;;;22.30;100.00;101179.81;4941588;28;20058;-79
2023/06/26 00:19:52;;;;;;;7.75;6.50;;;;;;;22.29;100.00;101175.41;4946514;29;20066;-79
2023/06/26 00:22:21;;;;;;;8.00;6.75;;;;;;;22.26;100.00;101170.16;4917205;29;20061;-79
2023/06/26 00:24:48;;;;;;;11.35;7.40;;;;;;;22.24;100.00;101172.00;4961389;28;20058;-78
2023/06/26 00:27:16;;;;;;;9.20;7.68;;;;;;;22.22;100.00;101173.00;4935418;29;20062;-79
2023/06/26 00:29:44;;;;;;;8.30;7.13;;;;;;;22.22;100.00;101167.63;4892738;29;20070;-79
2023/06/26 00:32:11;;;;;;;9.60;8.15;;;;;;;22.20;100.00;101167.69;4948500;29;20055;-79
2023/06/26 00:34:38;;;;;;;9.18;8.25;;;;;;;22.17;100.00;101160.66;4965172;28;20066;-79
2023/06/26 00:37:08;;;;;;;8.53;7.70;;;;;;;22.16;100.00;101158.00;4943777;29;20601;-79
2023/06/26 00:39:35;;;;;;;8.77;7.97;;;;;;;22.15;100.00;101150.88;4947499;28;20291;-79
2023/06/26 00:42:03;;;;;;;8.90;7.95;;;;;;;22.13;100.00;101153.63;4929586;28;20051;-80
2023/06/26 00:44:32;;;;;;;9.75;8.77;;;;;;;22.11;100.00;101150.13;4924832;28;20050;-80
2023/06/26 00:46:59;;;;;;;8.85;7.95;;;;;;;22.10;100.00;101143.03;4931430;29;20495;-79
2023/06/26 00:49:27;;;;;;;10.85;8.23;;;;;;;22.08;100.00;101141.31;4940700;28;20043;-79
2023/06/26 00:51:56;;;;;;;8.93;7.95;;;;;;;22.05;100.00;101142.34;4963649;28;20047;-79
2023/06/26 00:54:24;;;;;;;10.35;8.50;;;;;;;22.04;100.00;101132.56;4955486;28;20078;-79
2023/06/26 00:56:52;;;;;;;11.90;8.35;;;;;;;22.02;100.00;101128.16;4969790;28;20058;-79
2023/06/26 00:59:19;;;;;;;8.82;8.02;;;;;;;22.00;100.00;101128.22;4931403;28;20099;-79
2023/06/26 01:01:48;;;;;;;11.55;9.02;;;;;;;21.98;100.00;101127.41;4928111;28;20051;-79
2023/06/26 01:04:18;;;;;;;8.55;7.68;;;;;;;21.97;100.00;101110.44;4955072;28;20059;-79
2023/06/26 01:06:50;;;;;;;9.93;8.02;;;;;;;21.96;100.00;101108.69;4963198;28;20043;-79
2023/06/26 01:09:19;;;;;;;10.80;8.95;;;;;;;21.95;100.00;101114.13;4948720;29;20047;-79
2023/06/26 01:11:47;;;;;;;10.35;8.40;;;;;;;21.93;100.00;101111.50;4978644;28;20064;-79
2023/06/26 01:14:14;;;;;;;10.30;8.60;;;;;;;21.92;100.00;101100.84;4964924;28;20062;-80
2023/06/26 01:16:47;;;;;;;9.30;8.40;;;;;;;21.91;100.00;101101.75;4912677;28;20546;-79
2023/06/26 01:19:28;;;;;;;11.77;9.63;;;;;;;21.89;100.00;101095.59;4966043;28;20057;-79
2023/06/26 01:22:15;;;;;;;10.35;8.40;;;;;;;21.89;100.00;101099.16;4951960;28;20391;-78
2023/06/26 01:25:03;;;;;;;10.13;8.85;;;;;;;21.87;100.00;101090.31;4950537;29;20043;-79
2023/06/26 01:27:32;;;;;;;9.90;8.90;;;;;;;21.86;100.00;101080.50;4923219;29;20052;-79
2023/06/26 01:30:04;;;;;;;9.95;8.52;;;;;;;21.87;100.00;101076.00;4967699;28;20047;-79
2023/06/26 01:32:33;;;;;;;10.65;9.30;;;;;;;21.86;100.00;101079.63;4885113;29;20054;-79
2023/06/26 01:35:02;;;;;;;10.23;8.38;;;;;;;21.85;100.00;101078.72;4943467;28;20064;-79
2023/06/26 01:37:29;;;;;;;10.68;8.85;;;;;;;21.85;100.00;101077.88;4949559;29;20035;-78
2023/06/26 01:39:57;;;;;;;9.15;8.25;;;;;;;21.84;100.00;101074.31;4951825;29;20043;-79
2023/06/26 01:42:24;;;;;;;11.48;8.95;;;;;;;21.84;100.00;101076.13;4934834;29;20051;-79
2023/06/26 01:44:55;;;;;;;9.85;8.32;;;;;;;21.82;100.00;101067.28;4949958;28;20052;-79
2023/06/26 01:47:28;;;;;;;9.75;8.85;;;;;;;21.80;100.00;101068.19;4905589;28;20043;-79
2023/06/26 01:50:05;;;;;;;9.00;8.20;;;;;;;21.78;100.00;101064.72;4926965;28;20054;-78
2023/06/26 01:52:41;;;;;;;9.98;8.95;;;;;;;21.77;100.00;101060.25;4935649;29;20058;-79
2023/06/26 01:55:19;;;;;;;10.73;8.77;;;;;;;21.76;100.00;101053.16;4934638;29;20048;-80
2023/06/26 01:57:49;;;;;;;10.05;8.75;;;;;;;21.76;100.00;101057.66;4949215;29;20047;-80
2023/06/26 02:00:19;;;;;;;11.00;7.95;;;;;;;21.75;100.00;101058.59;4965275;28;20062;-80
2023/06/26 02:02:47;;;;;;;9.38;8.32;;;;;;;21.73;100.00;101055.97;4908842;28;20061;-78
2023/06/26 02:05:15;;;;;;;8.77;7.88;;;;;;;21.71;100.00;101048.94;4924991;29;20499;-80
2023/06/26 02:07:43;;;;;;;11.20;8.80;;;;;;;21.68;100.00;101044.56;4948200;29;20050;-78
2023/06/26 02:10:11;;;;;;;10.10;9.00;;;;;;;21.69;100.00;101057.03;4950066;29;20059;-79
2023/06/26 02:12:39;;;;;;;9.98;8.85;;;;;;;21.69;100.00;101056.16;4932213;29;20055;-78
2023/06/26 02:15:07;;;;;;;9.65;8.70;;;;;;;21.68;100.00;101052.63;4935654;29;20051;-79
2023/06/26 02:17:35;;;;;;;10.27;8.80;;;;;;;21.68;100.00;101049.94;4908067;28;20265;-79
2023/06/26 02:20:05;;;;;;;9.95;9.00;;;;;;;21.69;100.00;101051.66;4983015;28;20042;-77
2023/06/26 02:22:36;;;;;;;9.52;8.35;;;;;;;21.70;100.00;101044.47;4941456;28;20059;-79
2023/06/26 02:25:04;;;;;;;10.05;8.98;;;;;;;21.69;100.00;101037.38;4965780;28;20058;-78
2023/06/26 02:27:32;;;;;;;11.55;9.27;;;;;;;21.68;100.00;101039.22;4932020;29;20047;-79
2023/06/26 02:30:00;;;;;;;9.50;8.57;;;;;;;21.67;100.00;101039.25;4951600;29;20051;-79
2023/06/26 02:32:28;;;;;;;10.85;9.75;;;;;;;21.65;100.00;101031.28;4920625;28;20059;-78
2023/06/26 02:34:58;;;;;;;10.10;8.73;;;;;;;21.63;100.00;101040.31;4951494;28;20060;-79
2023/06/26 02:37:26;;;;;;;10.38;9.40;;;;;;;21.61;100.00;101037.69;4973454;28;20058;-78
2023/06/26 02:39:54;;;;;;;10.95;8.98;;;;;;;21.59;100.00;101031.53;4965563;28;20070;-80
2023/06/26 02:42:21;;;;;;;9.60;8.63;;;;;;;21.58;100.00;101022.59;4949659;29;20051;-79
2023/06/26 02:44:48;;;;;;;9.57;8.68;;;;;;;21.55;100.00;101028.09;4949123;29;20043;-79
2023/06/26 02:47:16;;;;;;;10.60;9.43;;;;;;;21.53;100.00;101027.28;4948782;29;20063;-79
2023/06/26 02:49:45;;;;;;;10.65;9.65;;;;;;;21.52;100.00;101024.66;4915544;28;20055;-79
2023/06/26 02:52:14;;;;;;;11.48;9.70;;;;;;;21.51;100.00;101028.25;4957969;28;20055;-80
2023/06/26 02:54:44;;;;;;;11.67;10.47;;;;;;;21.51;100.00;101030.94;4946755;29;20052;-80
2023/06/26 02:57:14;;;;;;;12.30;10.13;;;;;;;21.48;100.00;101026.59;4962593;28;20630;-81
2023/06/26 02:59:42;;;;;;;9.55;8.65;;;;;;;21.47;100.00;101027.50;4965628;28;20334;-81
2023/06/26 03:02:12;;;;;;;10.95;9.85;;;;;;;21.47;100.00;101029.31;4952010;29;20059;-81
2023/06/26 03:04:45;;;;;;;10.07;9.07;;;;;;;21.43;100.00;101029.38;4916084;28;20523;-81
2023/06/26 03:07:14;;;;;;;11.50;9.77;;;;;;;21.40;100.00;101029.53;4958810;28;20533;-82
2023/06/26 03:09:42;;;;;;;11.60;9.95;;;;;;;21.34;100.00;101035.13;4947259;29;20086;-80
2023/06/26 03:12:10;;;;;;;12.90;10.43;;;;;;;21.32;100.00;101028.06;4949132;29;20082;-80
2023/06/26 03:14:43;;;;;;;12.02;10.40;;;;;;;21.28;100.00;101024.63;4948843;29;20047;-80
2023/06/26 03:17:13;;;;;;;10.57;9.27;;;;;;;21.25;100.00;101024.78;4966319;28;20059;-80
2023/06/26 03:19:44;;;;;;;11.25;10.15;;;;;;;21.24;100.00;101023.00;4963985;28;20767;-79
2023/06/26 03:22:19;;;;;;;12.50;10.27;;;;;;;21.22;100.00;101025.75;4890902;29;20063;-80
2023/06/26 03:24:47;;;;;;;11.38;9.85;;;;;;;21.22;100.00;101019.50;4949974;29;20058;-80
2023/06/26 03:27:15;;;;;;;13.55;10.90;;;;;;;21.20;100.00;101016.03;4968949;28;20046;-81
2023/06/26 03:29:46;;;;;;;12.00;10.80;;;;;;;21.20;100.00;101022.25;4951379;29;20560;-81
2023/06/26 03:32:15;;;;;;;13.85;10.25;;;;;;;21.19;100.00;101019.63;4968955;28;20055;-81
2023/06/26 03:34:43;;;;;;;12.52;10.48;;;;;;;21.18;100.00;101029.47;4933655;29;20055;-81
2023/06/26 03:37:11;;;;;;;12.32;9.48;;;;;;;21.19;100.00;101027.66;4924286;28;20047;-81
2023/06/26 03:39:40;;;;;;;12.27;9.98;;;;;;;21.21;100.00;101029.38;4934254;29;20039;-80
2023/06/26 03:42:08;;;;;;;14.68;10.93;;;;;;;21.20;100.00;101040.16;4951273;29;20051;-80
2023/06/26 03:44:36;;;;;;;11.32;10.07;;;;;;;21.20;100.00;101030.28;4934071;29;20051;-80
2023/06/26 03:47:04;;;;;;;12.38;10.23;;;;;;;21.22;100.00;101035.59;4934464;29;20510;-80
2023/06/26 03:49:32;;;;;;;12.98;10.20;;;;;;;21.26;100.00;101031.00;4930812;29;20077;-80
2023/06/26 03:51:59;;;;;;;12.77;9.98;;;;;;;21.29;100.00;101034.44;4908542;28;20043;-81
2023/06/26 03:54:27;;;;;;;11.38;9.45;;;;;;;21.33;100.00;101027.16;4936146;28;20055;-80
2023/06/26 03:56:54;;;;;;;10.77;9.48;;;;;;;21.35;100.00;101031.50;4946638;29;20059;-80
2023/06/26 03:59:22;;;;;;;11.18;10.07;;;;;;;21.39;100.00;101030.44;4966449;28;20399;-81
2023/06/26 04:01:49;;;;;;;12.10;9.75;;;;;;;21.44;100.00;101022.28;4917743;28;20059;-80
2023/06/26 04:04:20;;;;;;;13.20;9.27;;;;;;;21.46;100.00;101030.25;4945479;29;20081;-80
2023/06/26 04:06:49;;;;;;;10.77;9.48;;;;;;;21.55;100.00;101025.41;4932102;28;20039;-80
2023/06/26 04:09:19;;;;;;;14.00;9.55;;;;;;;21.71;100.00;101039.06;4903493;28;20051;-80
2023/06/26 04:11:46;;;;;;;12.43;9.67;;;;;;;21.98;100.00;101029.03;4949845;29;20051;-79
2023/06/26 04:14:18;;;;;;;10.60;9.05;;;;;;;22.17;100.00;101034.50;4940022;29;20058;-79
2023/06/26 04:16:45;;;;;;;9.30;8.30;;;;;;;22.31;100.00;101031.25;4948169;29;20058;-80
2023/06/26 04:19:13;;;;;;;11.25;9.25;;;;;;;22.44;100.00;101015.50;4946163;28;20421;-81
2023/06/26 04:21:41;;;;;;;10.80;9.23;;;;;;;22.47;100.00;101015.34;4948567;29;20051;-80
2023/06/26 04:24:08;;;;;;;10.82;9.10;;;;;;;22.53;100.00;101023.16;4923868;28;20057;-79
2023/06/26 04:26:36;;;;;;;10.85;9.23;;;;;;;22.68;100.00;101018.03;4952366;28;20052;-80
2023/06/26 04:29:04;;;;;;;14.43;11.52;;;;;;;22.78;100.00;101027.44;4962596;28;20439;-82
2023/06/26 04:31:32;;;;;;;11.35;8.85;;;;;;;22.95;100.00;101019.47;4956010;28;20081;-80
2023/06/26 04:33:59;;;;;;;9.65;8.40;;;;;;;23.04;100.00;101011.94;4930654;29;20443;-80
2023/06/26 04:36:28;;;;;;;9.68;8.57;;;;;;;23.09;100.00;101015.31;4927899;29;20526;-80
2023/06/26 04:38:56;;;;;;;9.45;8.63;;;;;;;23.38;100.00;101027.34;4906138;28;20035;-79
2023/06/26 04:41:23;;;;;;;11.00;9.05;;;;;;;23.65;100.00;101029.69;4972204;28;20047;-80
2023/06/26 04:43:51;;;;;;;9.20;8.30;;;;;;;23.95;100.00;101035.41;4938161;29;20059;-80
2023/06/26 04:46:19;;;;;;;10.30;9.20;;;;;;;24.19;100.00;101025.22;4948715;29;20050;-80
2023/06/26 04:48:48;;;;;;;9.18;8.27;;;;;;;24.46;100.00;101022.94;4963910;28;20039;-81
2023/06/26 04:51:15;;;;;;;9.60;8.23;;;;;;;24.42;100.00;101013.25;4948937;29;20459;-80
2023/06/26 04:53:43;;;;;;;8.55;7.63;;;;;;;24.62;100.00;101022.16;4944494;28;20410;-80
2023/06/26 04:56:13;;;;;;;8.60;7.63;;;;;;;24.81;100.00;101028.31;4892259;28;20051;-81
2023/06/26 04:58:40;;;;;;;10.10;7.95;;;;;;;24.88;100.00;101029.72;4950255;28;20062;-80
2023/06/26 05:01:08;;;;;;;11.48;7.68;;;;;;;25.13;100.00;101014.91;4951890;29;20062;-80
2023/06/26 05:03:36;;;;;;;10.27;7.70;;;;;;;25.49;100.00;101035.41;4936516;28;20051;-82
2023/06/26 05:06:04;;;;;;;8.85;7.78;;;;;;;25.77;100.00;101041.94;4938097;29;20054;-81
2023/06/26 05:08:36;;;;;;;9.35;6.82;;;;;;;26.00;100.00;101041.50;4955978;28;20051;-79
2023/06/26 05:11:03;;;;;;;7.80;6.90;;;;;;;26.01;100.00;101042.34;4911078;28;20043;-81
2023/06/26 05:13:30;;;;;;;9.52;7.60;;;;;;;25.64;100.00;101030.97;4937374;28;20051;-81
2023/06/26 05:15:58;;;;;;;9.25;6.43;;;;;;;25.28;100.00;101032.97;4961872;28;20568;-80
2023/06/26 05:18:25;;;;;;;8.27;6.88;;;;;;;24.77;100.00;101034.81;4952522;29;20051;-81
2023/06/26 05:20:53;;;;;;;9.80;6.43;;;;;;;24.28;100.00;101034.66;4938400;28;20051;-80
2023/06/26 05:23:25;;;;;;;12.63;7.10;;;;;;;23.85;100.00;101052.94;4961547;28;20051;-80
2023/06/26 05:25:53;;;;;;;11.75;6.60;;;;;;;23.51;100.00;101071.56;4921346;28;20047;-80
2023/06/26 05:28:21;;;;;;;9.07;6.95;;;;;;;23.42;100.00;101072.00;4929726;28;20063;-79
2023/06/26 05:30:50;;;;;;;14.48;6.57;;;;;;;23.33;100.00;101073.31;4945807;28;20415;-79
2023/06/26 05:33:23;;;;;;;10.75;7.25;;;;;;;23.21;100.00;101073.00;4944934;28;20047;-79
2023/06/26 05:35:52;;;;;;;20.30;7.65;;;;;;;23.14;100.00;101085.84;4934992;29;20421;-79
2023/06/26 05:38:21;;;;;;;13.23;7.22;;;;;;;22.96;100.00;101096.44;4917794;29;20051;-79
2023/06/26 05:40:49;;;;;;;12.45;8.20;;;;;;;22.72;100.00;101109.16;4910243;29;20043;-78
2023/06/26 05:43:20;;;;;;;10.38;7.88;;;;;;;22.45;100.00;101110.34;4890225;29;20070;-78
2023/06/26 05:45:56;;;;;;;16.13;8.63;;;;;;;22.11;100.00;101104.50;4952116;28;20473;-79
2023/06/26 05:48:25;;;;;;;13.77;9.32;;;;;;;21.85;100.00;101110.06;4927279;29;20047;-78
2023/06/26 05:50:53;;;;;;;14.38;10.43;;;;;;;21.65;100.00;101102.81;4944830;28;20051;-78
2023/06/26 05:53:21;;;;;;;16.23;9.98;;;;;;;21.49;100.00;101105.19;4958945;28;20502;-79
2023/06/26 05:55:49;;;;;;;15.73;9.57;;;;;;;21.31;100.00;101120.16;4951807;28;20432;-78
2023/06/26 05:58:20;;;;;;;17.98;10.80;;;;;;;21.20;100.00;101141.97;4913701;28;20054;-80
2023/06/26 06:00:47;;;;;;;14.85;9.30;;;;;;;20.97;100.00;101145.50;4954942;28;20069;-79
2023/06/26 06:03:15;;;;;;;20.38;9.15;;;;;;;20.82;100.00;101126.34;4927627;28;20059;-79
2023/06/26 06:05:43;;;;;;;15.98;7.25;;;;;;;20.69;100.00;101118.78;4960760;28;20055;-79
2023/06/26 06:08:11;;;;;;;15.85;7.70;;;;;;;20.55;100.00;101128.13;4937739;28;20074;-77
2023/06/26 06:10:38;;;;;;;13.27;5.85;;;;;;;20.42;100.00;101137.50;4942877;28;20031;-78
2023/06/26 06:13:06;;;;;;;12.18;5.40;;;;;;;20.30;100.00;101146.78;4907585;28;27517;-79
2023/06/26 06:15:34;;;;;;;12.85;4.63;;;;;;;20.21;100.00;101163.19;4943784;28;20051;-80
2023/06/26 06:18:03;;;;;;;11.52;4.88;;;;;;;20.14;100.00;101170.50;4913265;29;20477;-78
2023/06/26 06:20:31;;;;;;;13.27;4.83;;;;;;;20.06;100.00;101188.59;4951783;29;20062;-79
2023/06/26 06:22:58;;;;;;;7.35;3.97;;;;;;;20.00;100.00;101180.75;4934765;29;20062;-78
2023/06/26 06:25:25;;;;;;;14.18;4.90;;;;;;;19.93;100.00;101185.41;4944983;28;20059;-77
2023/06/26 06:27:53;;;;;;;15.60;4.63;;;;;;;19.87;100.00;101204.34;4924989;29;20058;-78
2023/06/26 06:30:21;;;;;;;11.13;4.65;;;;;;;19.88;100.00;101192.69;4888292;28;20058;-78
2023/06/26 06:33:09;;;;;;;8.93;4.20;;;;;;;19.88;100.00;101214.09;4928428;29;20411;-77
2023/06/26 06:35:37;;;;;;;8.85;3.80;;;;;;;19.90;100.00;101200.69;4949099;28;20043;-78
2023/06/26 06:38:05;;;;;;;16.27;3.75;;;;;;;19.99;100.00;101211.97;4934129;28;20770;-78
2023/06/26 06:40:32;;;;;;;14.23;4.78;;;;;;;20.11;100.00;101213.41;4916617;28;20047;-77
2023/06/26 06:43:00;;;;;;;10.43;3.90;;;;;;;20.25;100.00;101223.69;4933737;28;20761;-77
2023/06/26 06:45:28;;;;;;;7.82;3.00;;;;;;;20.43;100.00;101225.78;4910661;28;20059;-77
2023/06/26 06:47:57;;;;;;;6.10;2.90;;;;;;;20.55;100.00;101227.19;4945652;28;20051;-78
2023/06/26 06:50:26;;;;;;;6.43;2.88;;;;;;;20.61;100.00;101226.16;4933136;29;20059;-78
2023/06/26 06:52:53;;;;;;;8.30;3.00;;;;;;;20.60;100.00;101235.09;4913163;29;20055;-78
2023/06/26 06:55:21;;;;;;;8.13;2.75;;;;;;;20.63;100.00;101241.22;4961267;28;20059;-78
2023/06/26 06:57:48;;;;;;;11.45;2.65;;;;;;;20.61;100.00;101237.72;4939113;28;20044;-80
2023/06/26 07:00:17;;;;;;;10.85;3.05;;;;;;;20.67;100.00;101243.81;4893516;29;20052;-78
2023/06/26 07:02:46;;;;;;;8.23;2.90;;;;;;;20.73;100.00;101252.50;4954019;28;20522;-78
2023/06/26 07:05:13;;;;;;;7.07;2.53;;;;;;;20.79;100.00;101280.91;4950981;29;20486;-78
2023/06/26 07:07:41;;;;;;;12.93;2.13;;;;;;;20.89;100.00;101277.00;4947007;29;20051;-78
2023/06/26 07:10:11;;;;;;;6.07;2.25;;;;;;;20.99;100.00;101267.72;4915387;29;20055;-78
2023/06/26 07:12:39;;;;;;;10.88;3.17;;;;;;;21.11;100.00;101281.63;4942234;28;20039;-77
2023/06/26 07:15:07;;;;;;;7.07;2.10;;;;;;;21.23;100.00;101281.22;4931677;28;22462;-77
2023/06/26 07:17:35;;;;;;;12.25;2.88;;;;;;;21.32;100.00;101285.38;4914943;28;20058;-78
2023/06/26 07:20:07;;;;;;;8.35;2.35;;;;;;;21.36;100.00;101287.91;4975337;28;20035;-79
2023/06/26 07:22:36;;;;;;;7.95;2.20;;;;;;;21.37;100.00;101292.34;4940422;28;20062;-78
2023/06/26 07:25:04;;;;;;;6.38;2.10;;;;;;;21.41;100.00;101291.28;4943488;29;20046;-78
2023/06/26 07:27:33;;;;;;;12.32;2.70;;;;;;;21.42;100.00;101289.50;4910290;28;20078;-77
2023/06/26 07:30:01;;;;;;;5.95;2.67;;;;;;;21.47;100.00;101297.41;4942126;29;20055;-77
2023/06/26 07:32:30;;;;;;;6.00;2.28;;;;;;;21.54;100.00;101296.28;4918118;28;20064;-79
2023/06/26 07:34:57;;;;;;;6.38;2.38;;;;;;;21.61;100.00;101316.59;4949414;28;20078;-79
2023/06/26 07:37:24;;;;;;;8.70;2.75;;;;;;;21.67;100.00;101313.69;4950940;28;20054;-77
2023/06/26 07:39:52;;;;;;;5.55;2.00;;;;;;;21.69;100.00;101330.59;4947201;29;20051;-78
2023/06/26 07:42:21;;;;;;;5.50;2.10;;;;;;;21.73;100.00;101326.84;4978464;28;20054;-79
2023/06/26 07:44:49;;;;;;;4.10;1.75;;;;;;;21.76;100.00;101323.22;4902596;29;20418;-79
2023/06/26 07:47:18;;;;;;;5.57;2.05;;;;;;;21.78;100.00;101335.63;4900809;29;20418;-79
2023/06/26 07:49:45;;;;;;;8.07;2.63;;;;;;;21.76;100.00;101333.94;4910426;28;20055;-78
2023/06/26 07:52:19;;;;;;;5.05;1.85;;;;;;;21.72;100.00;101338.53;4919230;29;20446;-78
2023/06/26 07:54:47;;;;;;;8.13;1.92;;;;;;;21.68;100.00;101344.03;4969978;28;20422;-78
2023/06/26 07:57:14;;;;;;;4.85;2.10;;;;;;;21.59;100.00;101346.13;4950229;29;20047;-78
2023/06/26 07:59:42;;;;;;;3.50;1.50;;;;;;;21.59;100.00;101342.59;4944805;28;20055;-79
2023/06/26 08:02:10;;;;;;;7.63;2.13;;;;;;;21.61;100.00;101351.44;4910788;28;20078;-78
2023/06/26 08:04:38;;;;;;;7.53;2.20;;;;;;;21.51;100.00;101352.69;4969165;28;20051;-79
2023/06/26 08:07:06;;;;;;;6.05;1.80;;;;;;;21.45;100.00;101363.63;4947833;29;20055;-79
2023/06/26 08:09:33;;;;;;;7.60;1.80;;;;;;;21.43;100.00;101359.13;4930497;29;20054;-79
2023/06/26 08:12:01;;;;;;;4.47;1.70;;;;;;;21.51;100.00;101358.94;4930171;29;20047;-77
2023/06/26 08:14:31;;;;;;;6.40;2.30;;;;;;;21.51;100.00;101358.03;4951209;28;20050;-81
2023/06/26 08:17:01;;;;;;;4.05;1.55;;;;;;;21.48;100.00;101353.66;4935158;29;20047;-82
2023/06/26 08:19:29;;;;;;;5.95;1.67;;;;;;;21.41;100.00;101374.41;4895505;28;20051;-84
2023/06/26 08:21:56;;;;;;;6.03;1.73;;;;;;;21.39;100.00;101368.22;4908976;28;20048;-81
2023/06/26 08:24:24;;;;;;;3.83;1.55;;;;;;;21.43;100.00;101377.03;4941246;28;21493;-81
2023/06/26 08:26:52;;;;;;;3.83;1.50;;;;;;;21.41;100.00;101379.75;4933977;29;20047;-81
2023/06/26 08:29:19;;;;;;;6.60;2.00;;;;;;;21.35;100.00;101381.78;4953116;28;20067;-80
2023/06/26 08:31:47;;;;;;;6.53;1.83;;;;;;;21.33;100.00;101383.66;4936108;28;20055;-80
2023/06/26 08:34:18;;;;;;;5.75;1.85;;;;;;;21.30;100.00;101391.78;4896796;28;20058;-79
2023/06/26 08:36:51;;;;;;;3.50;1.10;;;;;;;21.25;100.00;101396.41;4930334;29;20055;-79
2023/06/26 08:39:19;;;;;;;4.75;1.55;;;;;;;21.18;100.00;101396.59;4944900;29;20419;-80
2023/06/26 08:41:46;;;;;;;5.07;1.90;;;;;;;21.20;100.00;101404.59;4956273;28;20043;-80
2023/06/26 08:44:14;;;;;;;3.28;1.75;;;;;;;21.32;100.00;101396.19;4943018;28;20043;-80
2023/06/26 08:46:43;;;;;;;4.28;1.48;;;;;;;21.41;100.00;101406.56;4932427;29;20067;-80
2023/06/26 08:49:20;;;;;;;4.00;1.65;;;;;;;21.49;100.00;101400.97;4902333;28;20047;-80
2023/06/26 08:51:59;;;;;;;5.38;1.50;;;;;;;21.59;100.00;101413.16;4927471;28;20449;-79
2023/06/26 08:54:34;;;;;;;5.43;1.27;;;;;;;21.56;100.00;101412.41;4960254;28;20051;-79
2023/06/26 08:57:03;;;;;;;2.63;1.48;;;;;;;21.54;100.00;101412.44;4934363;28;20060;-79
2023/06/26 08:59:31;;;;;;;4.85;1.50;;;;;;;21.53;100.00;101415.16;4931242;29;20063;-80
2023/06/26 09:01:58;;;;;;;4.78;1.63;;;;;;;21.48;100.00;101420.69;4937495;28;20046;-80
2023/06/26 09:04:26;;;;;;;4.95;1.88;;;;;;;21.51;100.00;101425.06;4876057;29;20055;-80
2023/06/26 09:06:55;;;;;;;5.10;1.90;;;;;;;21.62;100.00;101433.63;4926872;28;20047;-80
2023/06/26 09:09:23;;;;;;;4.20;1.58;;;;;;;21.71;100.00;101430.66;4931776;29;20533;-79
2023/06/26 09:11:50;;;;;;;3.95;1.80;;;;;;;21.85;100.00;101422.09;4945908;29;20051;-80
2023/06/26 09:14:18;;;;;;;4.95;1.55;;;;;;;21.95;100.00;101428.06;4920190;29;20059;-79
2023/06/26 09:16:45;;;;;;;2.70;1.67;;;;;;;21.99;100.00;101429.69;4906554;29;20426;-79
2023/06/26 09:19:13;;;;;;;5.75;1.42;;;;;;;22.00;100.00;101426.06;4931641;29;20414;-79
2023/06/26 09:21:43;;;;;;;5.22;1.52;;;;;;;21.96;100.00;101430.66;4910710;28;20035;-79
2023/06/26 09:24:11;;;;;;;6.65;2.00;;;;;;;21.97;100.00;101427.06;4931079;29;20054;-80
2023/06/26 09:26:40;;;;;;;3.83;1.50;;;;;;;21.99;100.00;101429.69;4949004;29;20043;-79
2023/06/26 09:29:08;;;;;;;5.60;1.70;;;;;;;22.19;100.00;101454.03;4949649;28;20056;-81
2023/06/26 09:31:37;;;;;;;4.93;1.70;;;;;;;22.28;100.00;101449.28;4926023;28;20517;-79
2023/06/26 09:34:09;;;;;;;4.78;1.77;;;;;;;22.31;100.00;101446.50;4918074;28;20520;-79
2023/06/26 09:36:36;;;;;;;3.50;1.70;;;;;;;22.41;100.00;101438.97;4924907;28;20059;-79
2023/06/26 09:39:10;;;;;;;3.55;1.50;;;;;;;22.38;100.00;101446.22;4928243;29;20054;-80
2023/06/26 09:41:43;;;;;;;4.78;1.73;;;;;;;22.25;100.00;101452.03;4949644;28;20391;-79
2023/06/26 09:44:15;;;;;;;4.95;1.80;;;;;;;22.11;100.00;101456.09;4971611;28;20051;-80
2023/06/26 09:46:46;;;;;;;3.55;1.80;;;;;;;22.15;100.00;101454.16;4948091;28;20039;-78
2023/06/26 09:49:14;;;;;;;4.55;2.40;;;;;;;22.11;100.00;101456.09;4949007;28;20066;-80
2023/06/26 09:51:42;;;;;;;2.45;1.70;;;;;;;22.03;100.00;101463.53;4892091;28;20039;-79
2023/06/26 09:54:10;;;;;;;3.20;1.63;;;;;;;21.98;100.00;101466.41;4933178;29;20059;-79
2023/06/26 09:56:38;;;;;;;6.38;1.63;;;;;;;22.09;100.00;101466.00;4951931;29;20088;-79
2023/06/26 09:59:07;;;;;;;5.97;2.03;;;;;;;22.27;100.00;101463.63;4926204;28;20070;-79
2023/06/26 10:01:40;;;;;;;3.67;1.70;;;;;;;22.32;100.00;101470.56;4930424;29;20051;-79
2023/06/26 10:04:07;;;;;;;6.25;2.20;;;;;;;22.32;100.00;101470.56;4939450;28;20052;-80
2023/06/26 10:06:49;;;;;;;3.78;1.98;;;;;;;22.38;100.00;101472.16;4932985;28;20053;-80
2023/06/26 10:09:19;;;;;;;4.45;1.95;;;;;;;22.37;100.00;101468.59;4930902;29;20506;-79
2023/06/26 10:12:06;;;;;;;3.50;1.83;;;;;;;22.29;100.00;101477.91;4975399;28;20058;-79
2023/06/26 10:14:37;;;;;;;6.07;2.10;;;;;;;22.31;100.00;101494.81;4951207;29;20043;-79
2023/06/26 10:17:14;;;;;;;3.47;2.13;;;;;;;22.38;100.00;101490.97;4940516;28;20576;-79
2023/06/26 10:19:44;;;;;;;4.60;1.77;;;;;;;22.50;100.00;101477.09;4945599;28;20051;-78
2023/06/26 10:22:17;;;;;;;5.85;2.03;;;;;;;22.54;100.00;101491.28;4937147;28;20056;-77
2023/06/26 10:24:47;;;;;;;6.50;2.00;;;;;;;22.61;100.00;101491.94;4888512;28;20063;-79
2023/06/26 10:27:20;;;;;;;4.43;1.77;;;;;;;22.71;100.00;101491.53;4965309;28;20059;-79
2023/06/26 10:29:54;;;;;;;8.05;2.00;;;;;;;22.66;100.00;101492.66;4945283;29;20058;-80
2023/06/26 10:32:24;;;;;;;6.10;2.67;;;;;;;22.64;100.00;101499.88;4957864;28;20051;-81
2023/06/26 10:34:53;;;;;;;4.38;2.00;;;;;;;22.49;100.00;101494.13;4904096;29;20048;-80
2023/06/26 10:37:44;;;;;;;7.65;1.98;;;;;;;22.52;100.00;101515.50;4981385;28;20414;-80
2023/06/26 10:40:13;;;;;;;5.10;1.80;;;;;;;22.51;100.00;101518.25;4917922;28;20038;-80
2023/06/26 10:42:41;;;;;;;4.25;1.58;;;;;;;22.53;100.00;101506.53;4951055;29;20046;-80
2023/06/26 10:45:17;;;;;;;8.40;2.42;;;;;;;22.51;100.00;101508.41;4920928;29;20062;-80
2023/06/26 10:47:51;;;;;;;6.85;2.22;;;;;;;22.50;100.00;101520.06;4940487;28;20058;-81
2023/06/26 10:50:32;;;;;;;2.80;1.90;;;;;;;22.63;100.00;101514.25;4950619;28;20419;-80
2023/06/26 10:53:09;;;;;;;;;;;;;;;22.79;99.87;101510.06;4945136;29;20055;-80
2023/06/26 10:55:37;;;;;;;3.42;1.55;;;;;;;22.79;100.00;101512.75;4922346;28;20396;-80
2023/06/26 10:58:28;;;;;;;5.63;2.10;;;;;;;22.77;100.00;101520.84;4951456;29;20043;-81
2023/06/26 11:01:12;;;;;;;4.22;1.80;;;;;;;22.78;100.00;101527.13;4946782;29;20820;-81
2023/06/26 11:03:45;;;;;;;7.03;2.00;;;;;;;22.81;100.00;101532.38;4944675;28;20055;-80
2023/06/26 11:06:21;;;;;;;3.47;1.73;;;;;;;22.87;96.13;101540.22;4941636;28;20047;-78
2023/06/26 11:08:54;;;;;;;4.90;1.60;;;;;;;22.97;99.00;101538.94;4903236;28;20051;-81
2023/06/26 11:14:22;;;;;;;3.75;1.83;;;;;;;23.05;98.49;101540.50;4950677;29;20422;-80
2023/06/26 11:16:50;;;;;;;4.70;1.63;;;;;;;23.02;97.83;101545.94;4932174;29;20238;-80
2023/06/26 11:19:19;;;;;;;3.35;2.10;;;;;;;22.93;98.15;101542.69;4945600;28;20046;-82
2023/06/26 11:21:49;;;;;;;5.45;2.05;;;;;;;22.87;97.88;101548.28;4945788;28;20059;-81
2023/06/26 11:24:18;;;;;;;3.95;2.38;;;;;;;22.79;97.52;101544.97;4953803;29;20047;-80
2023/06/26 11:26:46;;;;;;;5.68;2.10;;;;;;;22.69;97.92;101532.84;4889735;29;20043;-80